Time;durP1;ratioP1;P1;durP2;ratioP2;P2;SDS_P1;SDS_P2;PMS_P1;PMS_P2;Temp;Humidity;BMP_temperature;BMP_pressure;BME280_temperature;BME280_humidity;BME280_pressure;Samples;Min_cycle;Max_cycle;Signal;HPM_P1;HPM_P2
2023/11/08 00:02:46;;;;;;;7.60;3.70;;;;;;;;;;6267161;28;20056;-96
2023/11/08 00:05:49;;;;;;;9.23;3.63;;;;;;;;;;6273702;28;20056;-95
2023/11/08 00:08:51;;;;;;;5.70;3.42;;;;;;;;;;6272016;28;20113;-96
2023/11/08 00:11:53;;;;;;;6.68;3.85;;;;;;;;;;6247146;28;20056;-96
2023/11/08 00:18:13;;;;;;;4.82;3.15;;;;;;;;;;6269936;28;20231;-96
2023/11/08 00:21:15;;;;;;;6.03;3.25;;;;;;;;;;6280437;28;20336;-96
2023/11/08 00:24:18;;;;;;;5.05;3.35;;;;;;;;;;6257963;28;20108;-96
2023/11/08 00:27:20;;;;;;;4.65;3.03;;;;;;;;;;6255819;28;20045;-96
2023/11/08 00:30:24;;;;;;;7.05;3.53;;;;;;;;;;6275068;28;20099;-96
2023/11/08 00:33:27;;;;;;;6.40;3.10;;;;;;;;;;6255685;28;20060;-96
2023/11/08 00:36:29;;;;;;;5.88;3.75;;;;;;;;;;6247511;28;20049;-96
2023/11/08 00:39:31;;;;;;;5.72;2.92;;;;;;;;;;6268793;28;20113;-96
2023/11/08 00:42:33;;;;;;;3.90;2.72;;;;;;;;;;6273793;28;20061;-96
2023/11/08 00:48:52;;;;;;;5.00;2.92;;;;;;;;;;6233184;28;20045;-96
2023/11/08 00:51:54;;;;;;;5.15;3.13;;;;;;;;;;6271849;28;20079;-95
2023/11/08 00:54:56;;;;;;;5.68;2.97;;;;;;;;;;6270534;28;20060;-95
2023/11/08 01:05:11;;;;;;;5.22;3.00;;;;;;;;;;6312181;28;20332;-96
2023/11/08 01:08:19;;;;;;;4.30;2.95;;;;;;;;;;6275837;28;20051;-96
2023/11/08 01:11:27;;;;;;;4.35;2.85;;;;;;;;;;6270144;28;20060;-96
2023/11/08 01:21:36;;;;;;;3.65;2.38;;;;;;;;;;6275219;28;20056;-96
2023/11/08 01:24:41;;;;;;;4.13;2.20;;;;;;;;;;6278826;28;20055;-96
2023/11/08 01:31:07;;;;;;;4.88;2.75;;;;;;;;;;6245361;28;20053;-96
2023/11/08 01:37:31;;;;;;;5.68;2.35;;;;;;;;;;6309209;28;20095;-96
2023/11/08 01:40:35;;;;;;;6.95;2.35;;;;;;;;;;6290433;28;20325;-95
2023/11/08 01:43:40;;;;;;;3.58;2.30;;;;;;;;;;6288812;28;20052;-97
2023/11/08 01:46:49;;;;;;;;;;;;;;;;;;6285929;28;20052;-96
2023/11/08 01:53:17;;;;;;;4.03;2.58;;;;;;;;;;6318177;28;20055;-96
2023/11/08 01:56:22;;;;;;;4.13;2.47;;;;;;;;;;6282309;28;20060;-96
2023/11/08 01:59:25;;;;;;;5.23;2.73;;;;;;;;;;6297290;28;20045;-96
2023/11/08 02:02:31;;;;;;;3.42;2.28;;;;;;;;;;6285873;28;20103;-96
2023/11/08 02:05:35;;;;;;;4.22;2.65;;;;;;;;;;6290003;28;20048;-96
2023/11/08 02:08:42;;;;;;;5.90;2.95;;;;;;;;;;6284178;28;20059;-96
2023/11/08 02:11:45;;;;;;;6.97;2.50;;;;;;;;;;6290421;28;20115;-96
2023/11/08 02:15:15;;;;;;;6.40;2.70;;;;;;;;;;6289066;28;20108;-96
2023/11/08 02:18:37;;;;;;;5.57;2.60;;;;;;;;;;6285536;28;20052;-96
2023/11/08 02:25:05;;;;;;;3.15;2.33;;;;;;;;;;6261452;28;20086;-95
2023/11/08 02:31:30;;;;;;;3.42;2.47;;;;;;;;;;6311241;28;20068;-96
2023/11/08 02:38:01;;;;;;;4.55;2.47;;;;;;;;;;6309686;28;20104;-95
2023/11/08 02:44:26;;;;;;;3.58;2.75;;;;;;;;;;6234020;28;20068;-96
2023/11/08 02:47:30;;;;;;;6.60;2.95;;;;;;;;;;6303615;28;20068;-96
2023/11/08 02:50:37;;;;;;;5.13;2.53;;;;;;;;;;6301700;28;20048;-96
2023/11/08 02:53:39;;;;;;;4.05;2.50;;;;;;;;;;6320296;28;20056;-96
2023/11/08 02:56:42;;;;;;;5.35;2.50;;;;;;;;;;6322193;28;20056;-96
2023/11/08 02:59:45;;;;;;;3.90;2.63;;;;;;;;;;6324215;28;20114;-96
2023/11/08 03:02:46;;;;;;;5.10;2.63;;;;;;;;;;6324179;28;20059;-96
2023/11/08 03:05:48;;;;;;;4.93;2.70;;;;;;;;;;6326764;28;20055;-96
2023/11/08 03:08:52;;;;;;;4.60;2.53;;;;;;;;;;6322724;28;20052;-96
2023/11/08 03:11:58;;;;;;;5.43;2.67;;;;;;;;;;6306975;28;20044;-96
2023/11/08 03:15:00;;;;;;;5.85;2.88;;;;;;;;;;6317450;28;20456;-95
2023/11/08 03:18:03;;;;;;;5.05;2.70;;;;;;;;;;6324727;28;20047;-96
2023/11/08 03:21:05;;;;;;;5.57;2.85;;;;;;;;;;6292449;28;20415;-96
2023/11/08 03:24:08;;;;;;;4.75;2.90;;;;;;;;;;6327708;28;20047;-96
2023/11/08 03:27:12;;;;;;;5.10;2.65;;;;;;;;;;6319180;28;20059;-96
2023/11/08 03:30:15;;;;;;;5.65;3.05;;;;;;;;;;6301926;28;20285;-93
2023/11/08 03:33:18;;;;;;;4.70;2.88;;;;;;;;;;6319729;28;20336;-96
2023/11/08 03:36:20;;;;;;;4.75;3.00;;;;;;;;;;6323900;28;20060;-96
2023/11/08 03:39:21;;;;;;;5.63;3.00;;;;;;;;;;6320111;28;20043;-96
2023/11/08 03:42:35;;;;;;;4.43;2.65;;;;;;;;;;6326049;28;20058;-96
2023/11/08 03:45:57;;;;;;;6.00;3.28;;;;;;;;;;6306944;28;20119;-96
2023/11/08 03:48:59;;;;;;;5.60;3.13;;;;;;;;;;6321671;28;20677;-96
2023/11/08 03:52:02;;;;;;;4.28;2.95;;;;;;;;;;6321466;28;20071;-96
2023/11/08 03:55:08;;;;;;;4.45;2.90;;;;;;;;;;6325118;28;20044;-96
2023/11/08 03:58:11;;;;;;;6.75;3.08;;;;;;;;;;6326065;28;20120;-96
2023/11/08 04:01:13;;;;;;;5.87;2.43;;;;;;;;;;6317098;28;20044;-96
2023/11/08 04:04:15;;;;;;;4.05;2.60;;;;;;;;;;6311582;28;20629;-96
2023/11/08 04:07:18;;;;;;;4.53;3.28;;;;;;;;;;6327149;28;20044;-96
2023/11/08 04:10:20;;;;;;;6.65;3.20;;;;;;;;;;6305221;28;20089;-96
2023/11/08 04:13:23;;;;;;;4.22;2.70;;;;;;;;;;6322202;28;20074;-96
2023/11/08 04:16:25;;;;;;;4.82;3.20;;;;;;;;;;6300740;28;20078;-96
2023/11/08 04:19:27;;;;;;;4.10;2.80;;;;;;;;;;6323606;28;20133;-96
2023/11/08 04:22:29;;;;;;;4.35;2.83;;;;;;;;;;6317799;28;20064;-96
2023/11/08 04:25:31;;;;;;;5.53;2.88;;;;;;;;;;6325058;28;20055;-96
2023/11/08 04:31:56;;;;;;;5.53;3.15;;;;;;;;;;6292239;28;20040;-96
2023/11/08 04:34:58;;;;;;;4.53;2.90;;;;;;;;;;6308333;28;20052;-96
2023/11/08 04:38:00;;;;;;;4.75;3.33;;;;;;;;;;6324105;28;20048;-96
2023/11/08 04:41:02;;;;;;;5.43;2.97;;;;;;;;;;6324610;28;20116;-96
2023/11/08 04:44:06;;;;;;;4.65;2.90;;;;;;;;;;6322914;28;20060;-96
2023/11/08 04:47:08;;;;;;;4.18;2.50;;;;;;;;;;6306546;28;20077;-96
2023/11/08 04:50:11;;;;;;;5.50;2.97;;;;;;;;;;6309218;28;20050;-96
2023/11/08 04:53:13;;;;;;;5.18;2.65;;;;;;;;;;6309201;28;21069;-96
2023/11/08 04:56:15;;;;;;;4.18;2.30;;;;;;;;;;6310368;28;20051;-96
2023/11/08 04:59:18;;;;;;;5.15;2.80;;;;;;;;;;6302464;28;20050;-96
2023/11/08 05:02:21;;;;;;;3.63;2.10;;;;;;;;;;6304709;28;20051;-96
2023/11/08 05:05:23;;;;;;;4.53;2.30;;;;;;;;;;6322682;28;20047;-96
2023/11/08 05:08:25;;;;;;;3.70;2.28;;;;;;;;;;6322147;28;20044;-96
2023/11/08 05:11:27;;;;;;;4.45;2.50;;;;;;;;;;6318592;28;20090;-96
2023/11/08 05:14:31;;;;;;;4.13;2.28;;;;;;;;;;6315748;28;20280;-96
2023/11/08 05:17:33;;;;;;;4.57;2.10;;;;;;;;;;6319819;28;20064;-96
2023/11/08 05:20:38;;;;;;;4.70;2.28;;;;;;;;;;6317764;28;20302;-96
2023/11/08 05:23:40;;;;;;;3.65;2.42;;;;;;;;;;6302171;28;20044;-95
2023/11/08 05:26:44;;;;;;;5.13;2.60;;;;;;;;;;6311124;28;20412;-96
2023/11/08 05:33:05;;;;;;;4.38;2.20;;;;;;;;;;6287431;28;20048;-96
2023/11/08 05:36:07;;;;;;;6.40;2.40;;;;;;;;;;6283840;28;20120;-96
2023/11/08 05:39:09;;;;;;;4.63;2.50;;;;;;;;;;6317114;28;20080;-96
2023/11/08 05:42:11;;;;;;;2.92;1.90;;;;;;;;;;6318257;28;20055;-96
2023/11/08 05:48:31;;;;;;;3.47;2.00;;;;;;;;;;6281848;28;20073;-94
2023/11/08 05:51:34;;;;;;;5.45;2.75;;;;;;;;;;6322643;28;20054;-96
2023/11/08 05:54:36;;;;;;;6.07;2.60;;;;;;;;;;6287889;28;20133;-96
2023/11/08 05:57:41;;;;;;;3.80;2.40;;;;;;;;;;6304642;28;20048;-96
2023/11/08 06:00:52;;;;;;;3.13;2.20;;;;;;;;;;6317682;28;20149;-96
2023/11/08 06:04:21;;;;;;;3.65;2.45;;;;;;;;;;6241209;28;20052;-96
2023/11/08 06:11:17;;;;;;;3.87;2.43;;;;;;;;;;6316215;28;20044;-96
2023/11/08 06:21:38;;;;;;;4.90;2.90;;;;;;;;;;6304248;28;20052;-96
2023/11/08 06:31:26;;;;;;;7.47;2.67;;;;;;;;;;6291877;28;20107;-96
2023/11/08 06:34:32;;;;;;;4.68;2.63;;;;;;;;;;6327057;28;20052;-96
2023/11/08 06:37:57;;;;;;;3.33;2.33;;;;;;;;;;6302476;28;20082;-96
2023/11/08 06:41:08;;;;;;;6.03;3.05;;;;;;;;;;6190011;28;20124;-96
2023/11/08 06:44:13;;;;;;;5.50;2.83;;;;;;;;;;6279263;28;20057;-96
2023/11/08 06:47:17;;;;;;;5.13;2.85;;;;;;;;;;6316347;28;20107;-96
2023/11/08 06:50:22;;;;;;;3.97;2.50;;;;;;;;;;6329568;28;20052;-96
2023/11/08 06:53:25;;;;;;;5.70;2.58;;;;;;;;;;6305961;28;20045;-96
2023/11/08 06:56:27;;;;;;;5.05;2.55;;;;;;;;;;6309655;28;20124;-96
2023/11/08 06:59:29;;;;;;;4.90;2.63;;;;;;;;;;6326724;28;20052;-96
2023/11/08 07:02:31;;;;;;;8.32;3.78;;;;;;;;;;6327454;28;20056;-96
2023/11/08 07:08:50;;;;;;;6.00;2.50;;;;;;;;;;6312446;28;20359;-96
2023/11/08 07:11:52;;;;;;;4.32;3.05;;;;;;;;;;6327480;28;20059;-96
2023/11/08 07:14:54;;;;;;;4.45;2.70;;;;;;;;;;6329774;28;20058;-96
2023/11/08 07:17:57;;;;;;;5.47;2.65;;;;;;;;;;6325142;28;20048;-96
2023/11/08 07:21:00;;;;;;;5.45;2.55;;;;;;;;;;6305712;28;20067;-96
2023/11/08 07:24:02;;;;;;;5.22;2.60;;;;;;;;;;6236455;28;20103;-96
2023/11/08 07:27:05;;;;;;;5.95;2.35;;;;;;;;;;6320502;28;20062;-96
2023/11/08 07:30:10;;;;;;;5.60;2.50;;;;;;;;;;6306568;28;20101;-93
2023/11/08 07:33:13;;;;;;;7.07;2.45;;;;;;;;;;6304554;28;20052;-96
2023/11/08 07:36:17;;;;;;;6.57;2.72;;;;;;;;;;6303401;28;20048;-96
2023/11/08 07:39:23;;;;;;;3.78;2.63;;;;;;;;;;6284136;28;20060;-96
2023/11/08 07:42:27;;;;;;;9.23;2.63;;;;;;;;;;6311239;28;20048;-96
2023/11/08 07:45:32;;;;;;;4.28;2.72;;;;;;;;;;6280403;28;20068;-96
2023/11/08 07:48:34;;;;;;;3.75;2.78;;;;;;;;;;6281046;28;20049;-95
2023/11/08 07:51:37;;;;;;;5.35;2.15;;;;;;;;;;6323647;28;20055;-96
2023/11/08 07:54:39;;;;;;;6.33;2.87;;;;;;;;;;6319344;28;20066;-96
2023/11/08 07:57:41;;;;;;;4.13;2.28;;;;;;;;;;6327187;28;20457;-96
2023/11/08 08:00:45;;;;;;;6.38;2.67;;;;;;;;;;6322107;28;20080;-96
2023/11/08 08:03:47;;;;;;;;;;;;;;;;;;6323159;28;20064;-96
2023/11/08 08:06:54;;;;;;;5.78;3.28;;;;;;;;;;6309965;28;20212;-96
2023/11/08 08:10:00;;;;;;;6.63;2.92;;;;;;;;;;6252796;28;20343;-96
2023/11/08 08:13:03;;;;;;;5.82;2.92;;;;;;;;;;6317318;28;20048;-96
2023/11/08 08:16:05;;;;;;;6.35;3.75;;;;;;;;;;6321579;28;20056;-96
2023/11/08 08:19:08;;;;;;;7.28;2.90;;;;;;;;;;6320592;28;20121;-96
2023/11/08 08:22:11;;;;;;;7.72;5.13;;;;;;;;;;6320365;28;20060;-95
2023/11/08 08:25:15;;;;;;;11.35;6.15;;;;;;;;;;6311866;28;20112;-96
2023/11/08 08:28:18;;;;;;;10.98;6.05;;;;;;;;;;6327356;28;20055;-96
2023/11/08 08:31:20;;;;;;;9.95;5.80;;;;;;;;;;6322478;28;20063;-96
2023/11/08 08:34:22;;;;;;;10.88;5.60;;;;;;;;;;6319683;28;20103;-96
2023/11/08 08:37:25;;;;;;;7.55;4.95;;;;;;;;;;6319105;28;20070;-96
2023/11/08 08:40:27;;;;;;;7.57;5.35;;;;;;;;;;6318590;28;20058;-94
2023/11/08 08:43:29;;;;;;;10.15;5.03;;;;;;;;;;6321321;28;20040;-94
2023/11/08 08:46:31;;;;;;;13.00;4.97;;;;;;;;;;6321927;28;20060;-95
2023/11/08 08:49:33;;;;;;;8.85;4.72;;;;;;;;;;6304158;28;20052;-96
2023/11/08 08:52:36;;;;;;;7.35;4.88;;;;;;;;;;6318316;28;20067;-96
2023/11/08 08:55:38;;;;;;;7.72;4.97;;;;;;;;;;6320724;28;20063;-95
2023/11/08 08:58:40;;;;;;;9.35;5.30;;;;;;;;;;6305467;28;20060;-95
2023/11/08 09:01:42;;;;;;;8.55;5.25;;;;;;;;;;6319912;28;20044;-96
2023/11/08 09:04:44;;;;;;;10.00;4.88;;;;;;;;;;6318750;28;20049;-95
2023/11/08 09:11:04;;;;;;;8.30;5.05;;;;;;;;;;6321935;28;20070;-95
2023/11/08 09:14:06;;;;;;;12.35;5.85;;;;;;;;;;6300816;28;20152;-94
2023/11/08 09:17:08;;;;;;;8.63;5.18;;;;;;;;;;6301808;28;20059;-95
2023/11/08 09:20:11;;;;;;;8.73;5.50;;;;;;;;;;6325569;28;20052;-95
2023/11/08 09:23:15;;;;;;;8.70;6.10;;;;;;;;;;6322731;28;20048;-96
2023/11/08 09:26:17;;;;;;;7.13;5.10;;;;;;;;;;6309955;28;20053;-96
2023/11/08 09:29:24;;;;;;;8.80;6.30;;;;;;;;;;6332435;28;20043;-96
2023/11/08 09:32:41;;;;;;;7.95;5.50;;;;;;;;;;6318116;28;20057;-95
2023/11/08 09:35:47;;;;;;;8.50;6.03;;;;;;;;;;6326916;28;20068;-96
2023/11/08 09:38:50;;;;;;;9.80;4.90;;;;;;;;;;6321183;28;20368;-96
2023/11/08 09:41:53;;;;;;;9.25;5.13;;;;;;;;;;6301216;28;20050;-96
2023/11/08 09:44:58;;;;;;;9.33;5.17;;;;;;;;;;6294391;28;20638;-96
2023/11/08 09:48:00;;;;;;;8.63;5.10;;;;;;;;;;6318230;28;20463;-95
2023/11/08 09:51:02;;;;;;;6.80;5.05;;;;;;;;;;6288173;28;20075;-96
2023/11/08 09:54:06;;;;;;;9.25;5.80;;;;;;;;;;6318847;28;20345;-96
2023/11/08 09:57:10;;;;;;;10.77;5.50;;;;;;;;;;6284464;28;20053;-95
2023/11/08 10:00:14;;;;;;;9.05;5.05;;;;;;;;;;6324148;28;20047;-96
2023/11/08 10:03:16;;;;;;;8.93;5.57;;;;;;;;;;6310389;28;20058;-96
2023/11/08 10:06:18;;;;;;;7.20;5.10;;;;;;;;;;6316946;28;20060;-96
2023/11/08 10:12:43;;;;;;;10.52;5.65;;;;;;;;;;6318027;28;20037;-95
2023/11/08 10:15:56;;;;;;;8.32;5.22;;;;;;;;;;6315995;28;20048;-95
2023/11/08 10:19:00;;;;;;;9.40;5.93;;;;;;;;;;6285194;28;20102;-96
2023/11/08 10:22:03;;;;;;;7.35;5.78;;;;;;;;;;6320791;28;20048;-96
2023/11/08 10:25:08;;;;;;;8.60;4.90;;;;;;;;;;6282217;28;20142;-96
2023/11/08 10:28:10;;;;;;;9.13;5.35;;;;;;;;;;6281604;28;20056;-96
2023/11/08 10:31:28;;;;;;;9.10;5.93;;;;;;;;;;6282610;28;20249;-96
2023/11/08 10:34:30;;;;;;;11.57;5.32;;;;;;;;;;6277473;28;20332;-95
2023/11/08 10:37:32;;;;;;;7.47;5.53;;;;;;;;;;6299473;28;20059;-96
2023/11/08 10:40:36;;;;;;;8.55;5.63;;;;;;;;;;6289945;28;20049;-96
2023/11/08 10:43:38;;;;;;;10.60;5.72;;;;;;;;;;6301609;28;20103;-94
2023/11/08 10:46:48;;;;;;;7.70;5.25;;;;;;;;;;6299689;28;20344;-94
2023/11/08 10:49:51;;;;;;;6.40;5.40;;;;;;;;;;6293246;28;20053;-94
2023/11/08 10:52:53;;;;;;;15.60;10.82;;;;;;;;;;6285809;28;20044;-93
2023/11/08 10:55:59;;;;;;;34.53;19.83;;;;;;;;;;6306448;28;20116;-95
2023/11/08 10:59:04;;;;;;;30.48;18.30;;;;;;;;;;6306089;28;20036;-91
2023/11/08 11:05:42;;;;;;;24.95;13.00;;;;;;;;;;6312073;28;20048;-93
2023/11/08 11:08:46;;;;;;;15.00;9.50;;;;;;;;;;6307681;28;20048;-90
2023/11/08 11:11:50;;;;;;;;;;;;;;;;;;6306515;28;20049;-91
2023/11/08 11:14:54;;;;;;;7.95;6.22;;;;;;;;;;6290617;28;19916;-95
2023/11/08 11:17:57;;;;;;;10.25;6.03;;;;;;;;;;6321402;28;20049;-93
2023/11/08 11:21:18;;;;;;;7.22;5.63;;;;;;;;;;6312010;28;20116;-94
2023/11/08 11:24:40;;;;;;;7.47;5.68;;;;;;;;;;6284830;28;20107;-94
2023/11/08 11:27:46;;;;;;;6.90;5.45;;;;;;;;;;6307251;28;20131;-95
2023/11/08 11:30:48;;;;;;;7.03;4.72;;;;;;;;;;6289746;28;20052;-92
2023/11/08 11:33:51;;;;;;;10.18;5.47;;;;;;;;;;6327003;28;20040;-94
2023/11/08 11:37:05;;;;;;;6.72;5.47;;;;;;;;;;6320643;28;20139;-95
2023/11/08 11:40:18;;;;;;;10.85;5.40;;;;;;;;;;6304468;28;20078;-95
2023/11/08 11:43:43;;;;;;;7.80;5.20;;;;;;;;;;6304273;28;20324;-96
2023/11/08 11:46:50;;;;;;;7.10;5.55;;;;;;;;;;6319586;28;20052;-95
2023/11/08 11:49:53;;;;;;;7.60;5.03;;;;;;;;;;6323565;28;20052;-93
2023/11/08 11:52:55;;;;;;;7.40;5.45;;;;;;;;;;6305379;28;20062;-96
2023/11/08 11:55:58;;;;;;;7.32;5.63;;;;;;;;;;6324425;28;20087;-95
2023/11/08 11:59:01;;;;;;;11.50;5.70;;;;;;;;;;6289269;28;20052;-95
2023/11/08 12:02:03;;;;;;;10.20;5.60;;;;;;;;;;6318632;28;20074;-93
2023/11/08 12:05:06;;;;;;;14.65;8.85;;;;;;;;;;6306816;28;20052;-93
2023/11/08 12:08:08;;;;;;;6.27;4.97;;;;;;;;;;6304068;28;20056;-96
2023/11/08 12:11:20;;;;;;;6.18;5.05;;;;;;;;;;6294139;28;20055;-94
2023/11/08 12:14:23;;;;;;;10.38;5.40;;;;;;;;;;6294773;28;20108;-95
2023/11/08 12:17:26;;;;;;;5.80;4.78;;;;;;;;;;6293010;28;20138;-96
2023/11/08 12:20:33;;;;;;;7.07;4.82;;;;;;;;;;6276390;28;20057;-96
2023/11/08 12:23:35;;;;;;;8.93;5.38;;;;;;;;;;6296356;28;20049;-95
2023/11/08 12:26:37;;;;;;;7.25;4.47;;;;;;;;;;6258637;28;20049;-96
2023/11/08 12:29:41;;;;;;;6.45;4.63;;;;;;;;;;6296626;28;20052;-94
2023/11/08 12:32:44;;;;;;;8.63;4.55;;;;;;;;;;6295387;28;20062;-95
2023/11/08 12:35:46;;;;;;;8.07;4.60;;;;;;;;;;6294150;28;20049;-94
2023/11/08 12:38:48;;;;;;;7.72;5.13;;;;;;;;;;6295385;28;20095;-95
2023/11/08 12:41:53;;;;;;;7.88;4.60;;;;;;;;;;6261182;28;20059;-96
2023/11/08 12:44:56;;;;;;;7.90;5.20;;;;;;;;;;6289160;28;20052;-95
2023/11/08 12:48:05;;;;;;;8.90;4.93;;;;;;;;;;6275404;28;20045;-94
2023/11/08 12:51:10;;;;;;;6.00;4.53;;;;;;;;;;6295256;28;20116;-96
2023/11/08 12:54:13;;;;;;;7.05;4.95;;;;;;;;;;6285402;28;20351;-96
2023/11/08 13:00:46;;;;;;;5.60;4.70;;;;;;;;;;6290697;28;20060;-96
2023/11/08 13:03:51;;;;;;;8.93;4.93;;;;;;;;;;6294331;28;20236;-94
2023/11/08 13:10:42;;;;;;;5.85;4.47;;;;;;;;;;6309303;28;20053;-96
2023/11/08 13:13:45;;;;;;;6.47;5.00;;;;;;;;;;6293661;28;20051;-96
2023/11/08 13:16:52;;;;;;;7.35;5.05;;;;;;;;;;6272640;28;20044;-95
2023/11/08 13:19:57;;;;;;;6.63;4.72;;;;;;;;;;6297412;28;20128;-94
2023/11/08 13:23:01;;;;;;;8.63;4.85;;;;;;;;;;6294674;28;20036;-96
2023/11/08 13:26:04;;;;;;;9.57;5.65;;;;;;;;;;6297970;28;20075;-94
2023/11/08 13:29:09;;;;;;;7.80;5.10;;;;;;;;;;6310496;28;20060;-95
2023/11/08 13:36:06;;;;;;;7.57;4.50;;;;;;;;;;6263902;28;20041;-96
2023/11/08 13:39:11;;;;;;;7.78;4.85;;;;;;;;;;6309116;28;20120;-96
2023/11/08 13:42:37;;;;;;;7.75;5.43;;;;;;;;;;6308688;28;20102;-95
2023/11/08 13:46:00;;;;;;;6.07;4.93;;;;;;;;;;6313135;28;20048;-96
2023/11/08 13:49:07;;;;;;;6.13;4.68;;;;;;;;;;6328198;28;20078;-96
2023/11/08 13:59:42;;;;;;;6.35;4.63;;;;;;;;;;6303559;28;20072;-96
2023/11/08 14:02:46;;;;;;;10.73;5.07;;;;;;;;;;6297751;28;20053;-96
2023/11/08 14:05:49;;;;;;;7.10;4.93;;;;;;;;;;6297948;28;20052;-96
2023/11/08 14:08:51;;;;;;;6.93;4.80;;;;;;;;;;6278210;28;20112;-96
2023/11/08 14:15:14;;;;;;;9.27;5.03;;;;;;;;;;6290737;28;20409;-96
2023/11/08 14:18:17;;;;;;;6.25;4.82;;;;;;;;;;6300883;28;20045;-95
2023/11/08 14:21:20;;;;;;;7.40;4.85;;;;;;;;;;6304272;28;20041;-96
2023/11/08 14:24:23;;;;;;;8.30;4.75;;;;;;;;;;6307610;28;20044;-96
2023/11/08 14:27:50;;;;;;;7.47;4.85;;;;;;;;;;6286983;28;20044;-96
2023/11/08 14:30:54;;;;;;;6.35;4.47;;;;;;;;;;6290798;28;20049;-96
2023/11/08 14:33:59;;;;;;;9.52;4.60;;;;;;;;;;6273185;28;20041;-96
2023/11/08 14:37:02;;;;;;;7.60;4.70;;;;;;;;;;6299386;28;20050;-96
2023/11/08 14:40:07;;;;;;;7.97;4.85;;;;;;;;;;6285684;28;20052;-96
2023/11/08 14:43:15;;;;;;;7.75;4.90;;;;;;;;;;6298719;28;20045;-96
2023/11/08 14:46:17;;;;;;;7.70;5.20;;;;;;;;;;6294868;28;20061;-96
2023/11/08 14:49:22;;;;;;;9.02;5.22;;;;;;;;;;6301916;28;20060;-96
2023/11/08 14:52:24;;;;;;;8.90;5.32;;;;;;;;;;6301941;28;20086;-96
2023/11/08 14:55:34;;;;;;;9.27;5.00;;;;;;;;;;6304498;28;20067;-96
2023/11/08 14:58:37;;;;;;;8.25;4.63;;;;;;;;;;6297119;28;20166;-96
2023/11/08 15:01:40;;;;;;;7.43;5.40;;;;;;;;;;6312811;28;20056;-96
2023/11/08 15:04:42;;;;;;;6.22;4.50;;;;;;;;;;6319569;28;20052;-95
2023/11/08 15:07:44;;;;;;;7.60;5.50;;;;;;;;;;6299570;28;20040;-96
2023/11/08 15:10:46;;;;;;;8.05;5.25;;;;;;;;;;6318394;28;20056;-96
2023/11/08 15:13:51;;;;;;;8.75;5.40;;;;;;;;;;6327192;28;20060;-93
2023/11/08 15:16:54;;;;;;;6.97;4.85;;;;;;;;;;6299287;28;20103;-96
2023/11/08 15:19:56;;;;;;;7.75;4.97;;;;;;;;;;6302309;28;20043;-96
2023/11/08 15:23:00;;;;;;;13.05;5.30;;;;;;;;;;6296213;28;20052;-94
2023/11/08 15:26:02;;;;;;;;;;;;;;;;;;6294024;28;20061;-96
2023/11/08 15:29:06;;;;;;;7.47;5.20;;;;;;;;;;6297601;28;19975;-96
2023/11/08 15:32:09;;;;;;;15.13;6.45;;;;;;;;;;6295799;28;20057;-96
2023/11/08 15:35:11;;;;;;;9.98;5.70;;;;;;;;;;6274686;28;20101;-96
2023/11/08 15:38:13;;;;;;;9.68;6.68;;;;;;;;;;6276109;28;20143;-92
2023/11/08 15:41:17;;;;;;;10.10;6.65;;;;;;;;;;6295145;28;20056;-96
2023/11/08 15:44:20;;;;;;;10.65;6.55;;;;;;;;;;6291595;28;20109;-96
2023/11/08 15:47:22;;;;;;;8.63;6.55;;;;;;;;;;6294948;28;20344;-96
2023/11/08 15:50:24;;;;;;;11.90;7.32;;;;;;;;;;6294739;28;20328;-96
2023/11/08 15:53:26;;;;;;;13.50;6.55;;;;;;;;;;6283091;28;20063;-92
2023/11/08 15:56:30;;;;;;;10.57;6.68;;;;;;;;;;6308840;28;20052;-93
2023/11/08 15:59:34;;;;;;;11.75;7.40;;;;;;;;;;6298136;28;20102;-95
2023/11/08 16:02:36;;;;;;;10.40;7.05;;;;;;;;;;6296281;28;20063;-96
2023/11/08 16:05:38;;;;;;;9.27;6.95;;;;;;;;;;6298892;28;20063;-96
2023/11/08 16:08:40;;;;;;;10.45;7.05;;;;;;;;;;6297652;28;20066;-96
2023/11/08 16:11:42;;;;;;;9.88;7.13;;;;;;;;;;6296131;28;20070;-95
2023/11/08 16:14:47;;;;;;;9.98;7.30;;;;;;;;;;6297461;28;20058;-96
2023/11/08 16:17:50;;;;;;;10.95;7.70;;;;;;;;;;6283279;28;20059;-96
2023/11/08 16:20:52;;;;;;;15.63;7.90;;;;;;;;;;6306051;28;20051;-95
2023/11/08 16:23:54;;;;;;;16.25;7.60;;;;;;;;;;6298792;28;20052;-94
2023/11/08 16:26:56;;;;;;;56.20;30.52;;;;;;;;;;6299481;28;20071;-95
2023/11/08 16:30:00;;;;;;;259.88;118.90;;;;;;;;;;6311442;28;20124;-92
2023/11/08 16:33:03;;;;;;;97.88;44.38;;;;;;;;;;6313070;28;20052;-93
2023/11/08 16:36:06;;;;;;;167.90;75.88;;;;;;;;;;6302261;28;20048;-90
2023/11/08 16:39:13;;;;;;;61.15;30.13;;;;;;;;;;6278268;28;20059;-93
2023/11/08 16:42:15;;;;;;;146.77;66.05;;;;;;;;;;6297769;28;20044;-92
2023/11/08 16:48:41;;;;;;;17.95;9.48;;;;;;;;;;6280950;28;20070;-95
2023/11/08 16:51:45;;;;;;;13.10;8.15;;;;;;;;;;6319787;28;20119;-96
2023/11/08 16:54:46;;;;;;;;;;;;;;;;;;6301290;28;20055;-95
2023/11/08 16:57:49;;;;;;;15.55;8.82;;;;;;;;;;6323186;28;19962;-94
2023/11/08 17:00:52;;;;;;;12.65;8.13;;;;;;;;;;6320404;28;20097;-95
2023/11/08 17:03:54;;;;;;;11.13;7.47;;;;;;;;;;6305363;28;20052;-96
2023/11/08 17:06:58;;;;;;;14.07;7.35;;;;;;;;;;6317330;28;20058;-95
2023/11/08 17:10:01;;;;;;;10.95;7.63;;;;;;;;;;6304318;28;20052;-96
2023/11/08 17:13:03;;;;;;;15.20;8.93;;;;;;;;;;6317805;28;20083;-96
2023/11/08 17:16:12;;;;;;;13.77;8.40;;;;;;;;;;6303797;28;20041;-94
2023/11/08 17:19:14;;;;;;;14.25;8.27;;;;;;;;;;6307276;28;20115;-96
2023/11/08 17:22:16;;;;;;;22.02;9.13;;;;;;;;;;6322077;28;20048;-95
2023/11/08 17:25:18;;;;;;;11.85;8.05;;;;;;;;;;6301354;28;20074;-95
2023/11/08 17:28:20;;;;;;;14.52;9.02;;;;;;;;;;6320762;28;20064;-96
2023/11/08 17:34:40;;;;;;;11.80;8.30;;;;;;;;;;6303465;28;20106;-96
2023/11/08 17:37:42;;;;;;;11.68;7.65;;;;;;;;;;6300575;28;20119;-96
2023/11/08 17:40:44;;;;;;;15.32;10.35;;;;;;;;;;6294237;28;20120;-95
2023/11/08 17:43:47;;;;;;;13.23;9.02;;;;;;;;;;6287239;28;20074;-95
2023/11/08 17:46:52;;;;;;;14.48;8.68;;;;;;;;;;6321055;28;20056;-95
2023/11/08 17:49:55;;;;;;;15.05;9.27;;;;;;;;;;6282700;28;20109;-96
2023/11/08 17:52:58;;;;;;;13.70;8.40;;;;;;;;;;6290932;28;20347;-96
2023/11/08 17:56:02;;;;;;;11.48;8.10;;;;;;;;;;6284644;28;20049;-92
2023/11/08 17:59:07;;;;;;;18.42;9.95;;;;;;;;;;6313194;22;20044;-92
2023/11/08 18:02:11;;;;;;;15.70;9.45;;;;;;;;;;6309704;28;20056;-93
2023/11/08 18:05:12;;;;;;;15.85;9.98;;;;;;;;;;6295611;28;20070;-93
2023/11/08 18:08:16;;;;;;;14.52;9.32;;;;;;;;;;6297101;28;20052;-94
2023/11/08 18:11:18;;;;;;;16.02;9.30;;;;;;;;;;6320893;28;20059;-92
2023/11/08 18:14:20;;;;;;;15.68;10.10;;;;;;;;;;6326377;28;20111;-94
2023/11/08 18:17:24;;;;;;;16.58;9.48;;;;;;;;;;6328865;28;20377;-94
2023/11/08 18:20:31;;;;;;;16.75;10.07;;;;;;;;;;6329245;28;20332;-91
2023/11/08 18:23:33;;;;;;;18.08;9.98;;;;;;;;;;6329103;28;20036;-90
2023/11/08 18:26:36;;;;;;;14.00;9.13;;;;;;;;;;6327077;28;20058;-96
2023/11/08 18:29:38;;;;;;;16.27;9.95;;;;;;;;;;6329288;28;20127;-95
2023/11/08 18:32:45;;;;;;;18.65;10.57;;;;;;;;;;6337646;28;20074;-93
2023/11/08 18:35:48;;;;;;;16.15;9.77;;;;;;;;;;6337469;28;20067;-88
2023/11/08 18:38:50;;;;;;;15.80;10.68;;;;;;;;;;6334756;28;20282;-92
2023/11/08 18:41:53;;;;;;;18.02;10.32;;;;;;;;;;6329933;28;20059;-93
2023/11/08 18:44:55;;;;;;;15.13;9.40;;;;;;;;;;6336076;28;20036;-92
2023/11/08 18:48:00;;;;;;;23.23;10.50;;;;;;;;;;6339410;28;20055;-91
2023/11/08 18:51:07;;;;;;;21.35;9.93;;;;;;;;;;6342020;28;20058;-93
2023/11/08 18:54:09;;;;;;;15.70;10.43;;;;;;;;;;6334399;28;20075;-92
2023/11/08 18:57:11;;;;;;;16.27;10.82;;;;;;;;;;6342375;28;20048;-90
2023/11/08 19:00:14;;;;;;;15.27;10.55;;;;;;;;;;6314964;28;20056;-86
2023/11/08 19:03:18;;;;;;;19.58;10.88;;;;;;;;;;6310656;28;20049;-87
2023/11/08 19:06:23;;;;;;;19.38;10.68;;;;;;;;;;6319150;28;20029;-86
2023/11/08 19:09:25;;;;;;;14.57;9.55;;;;;;;;;;6327178;28;20036;-92
2023/11/08 19:12:27;;;;;;;20.38;9.65;;;;;;;;;;6324075;28;20039;-87
2023/11/08 19:23:08;;;;;;;15.18;9.35;;;;;;;;;;6256889;28;20040;-96
2023/11/08 19:26:23;;;;;;;16.23;10.40;;;;;;;;;;6255877;28;20037;-96
2023/11/08 19:29:59;;;;;;;18.80;9.73;;;;;;;;;;6299908;28;20094;-96
2023/11/08 19:33:08;;;;;;;13.63;9.82;;;;;;;;;;6280045;28;20048;-94
2023/11/08 19:36:14;;;;;;;16.75;10.20;;;;;;;;;;6257854;28;20044;-96
2023/11/08 19:39:21;;;;;;;18.10;10.20;;;;;;;;;;6293175;28;20055;-96
2023/11/08 19:42:31;;;;;;;18.23;10.73;;;;;;;;;;6290567;28;20079;-96
2023/11/08 19:45:34;;;;;;;18.10;10.43;;;;;;;;;;6289206;28;20057;-96
2023/11/08 19:48:51;;;;;;;15.60;10.75;;;;;;;;;;6263426;28;20064;-96
2023/11/08 19:52:22;;;;;;;22.65;12.60;;;;;;;;;;6290224;28;20068;-96
2023/11/08 19:55:33;;;;;;;22.90;11.43;;;;;;;;;;6306182;28;20066;-96
2023/11/08 19:58:36;;;;;;;16.17;10.15;;;;;;;;;;6292549;28;20057;-96
2023/11/08 20:01:42;;;;;;;17.83;10.18;;;;;;;;;;6283982;28;20132;-96
2023/11/08 20:04:58;;;;;;;23.02;10.88;;;;;;;;;;6281859;28;20054;-96
2023/11/08 20:11:40;;;;;;;57.33;27.25;;;;;;;;;;6304313;28;20045;-95
2023/11/08 20:14:46;;;;;;;224.35;97.32;;;;;;;;;;6307219;28;20052;-96
2023/11/08 20:17:48;;;;;;;146.30;71.30;;;;;;;;;;6293988;22;20061;-92
2023/11/08 20:20:51;;;;;;;126.30;58.20;;;;;;;;;;6281407;28;20070;-95
2023/11/08 20:23:55;;;;;;;29.13;14.67;;;;;;;;;;6280909;28;20169;-96
2023/11/08 20:26:57;;;;;;;14.82;10.20;;;;;;;;;;6278340;28;20466;-92